Terminal Aerodrome Forecast
Issued by NWS

Home | Current Version | Previous Version | Text Only | Print | Product List | Glossary On
Versions: 1 2 3 4 5 6 7 8 9 10 11 12 13 14
000
FTUS41 KBTV 302320
TAFMSS
TAF
KMSS 302320Z 3100/3124 27013G23KT P6SM VCSH BKN035 BKN060
     FM310400 28012G20KT P6SM BKN035 BKN060
     FM311200 29010KT P6SM BKN035
     FM311800 30009KT P6SM SCT035=

USA.gov is the U.S. government's official web portal to all federal, state and local government web resources and services.